createdAt,value
2019-01-24T02:00:51.164Z,80.80
2019-01-24T02:15:51.086Z,80.52
2019-01-24T02:30:51.029Z,80.60
2019-01-24T02:45:51.011Z,81.69
2019-01-24T03:00:51.008Z,82.13
2019-01-24T03:15:52.952Z,81.21
2019-01-24T03:30:51.253Z,80.32
2019-01-24T03:45:51.220Z,79.31
2019-01-24T04:00:51.173Z,79.00
2019-01-24T04:15:51.093Z,78.15
2019-01-24T04:30:51.197Z,79.24
2019-01-24T04:45:50.959Z,79.41
2019-01-24T05:00:51.448Z,80.49
2019-01-24T05:15:51.415Z,82.34
2019-01-24T05:30:51.389Z,85.20
2019-01-24T05:45:50.625Z,84.92
2019-01-24T06:00:51.087Z,84.30
2019-01-24T06:15:50.483Z,83.46
2019-01-24T06:30:50.395Z,83.13
2019-01-24T06:45:50.836Z,82.46
2019-01-24T07:00:50.812Z,81.50
2019-01-24T07:15:50.795Z,80.06
2019-01-24T07:30:50.691Z,78.35
2019-01-24T07:45:51.056Z,78.33
2019-01-24T08:00:50.896Z,79.97
2019-01-24T08:15:50.811Z,80.09
2019-01-24T08:30:50.730Z,79.20
2019-01-24T08:45:50.272Z,78.69
2019-01-24T09:00:51.601Z,77.27
2019-01-24T09:15:50.744Z,75.29
2019-01-24T09:30:50.756Z,72.04
2019-01-24T09:45:51.190Z,69.95
2019-01-24T10:00:51.256Z,68.39
2019-01-24T10:15:51.328Z,68.30
2019-01-24T10:30:51.677Z,68.20
2019-01-24T10:45:51.651Z,68.01
2019-01-24T11:00:52.954Z,68.33
2019-01-24T11:15:51.203Z,67.36
2019-01-24T11:30:50.987Z,65.44
2019-01-24T11:45:50.736Z,64.67
2019-01-24T12:00:53.868Z,63.56
2019-01-24T12:15:51.568Z,63.76
2019-01-24T12:30:52.476Z,64.41
2019-01-24T12:45:50.827Z,66.73
2019-01-24T13:00:50.756Z,70.66
2019-01-24T13:15:50.728Z,70.71
2019-01-24T13:30:52.235Z,72.65
2019-01-24T13:45:51.106Z,74.37
2019-01-24T14:00:50.946Z,76.25
2019-01-24T14:15:50.844Z,76.37
2019-01-24T14:30:51.164Z,75.11
2019-01-24T14:45:51.339Z,75.41
2019-01-24T15:00:55.604Z,74.87
2019-01-24T15:15:56.976Z,75.23
2019-01-24T15:30:51.007Z,76.57
2019-01-24T15:45:51.452Z,77.05
2019-01-24T16:00:52.369Z,77.88
2019-01-24T16:15:52.028Z,79.01
2019-01-24T16:30:50.869Z,78.94
2019-01-24T16:45:51.772Z,77.87
2019-01-24T17:00:57.628Z,78.19
2019-01-24T17:15:51.508Z,77.24
2019-01-24T17:30:53.356Z,76.41
2019-01-24T17:45:51.979Z,75.54
2019-01-24T18:00:53.226Z,75.28
2019-01-24T18:15:51.191Z,74.92
2019-01-24T18:30:52.040Z,74.76
2019-01-24T18:45:59.266Z,74.52
2019-01-24T19:00:51.148Z,73.29
2019-01-24T19:15:51.243Z,73.10
2019-01-24T19:30:53.012Z,71.75
2019-01-24T19:45:53.984Z,71.42
2019-01-24T20:00:52.307Z,71.38
2019-01-24T20:15:51.570Z,70.93
2019-01-24T20:30:52.825Z,70.48
2019-01-24T20:45:51.560Z,71.11
2019-01-24T21:00:52.055Z,70.59
2019-01-24T21:15:53.550Z,70.30
2019-01-24T21:30:51.570Z,70.13
2019-01-24T21:45:50.944Z,70.00
2019-01-24T22:00:51.919Z,70.35
2019-01-24T22:15:51.876Z,69.49
2019-01-24T22:30:59.936Z,70.28
2019-01-24T22:45:50.883Z,70.56
2019-01-24T23:15:50.716Z,71.05
2019-01-24T23:30:51.673Z,71.58
2019-01-24T23:45:53.857Z,71.83
